createdAt,value
2018-04-13T00:00:39.416Z,15.57
2018-04-13T00:03:14.947Z,16.97
2018-04-13T00:05:41.152Z,16.45
2018-04-13T00:08:07.253Z,16.20
2018-04-13T00:10:33.337Z,17.48
2018-04-13T00:12:59.562Z,16.85
2018-04-13T00:15:25.695Z,16.70
2018-04-13T00:17:51.797Z,16.73
2018-04-13T00:20:17.906Z,16.27
2018-04-13T00:22:44.061Z,17.73
2018-04-13T00:25:10.180Z,18.67
2018-04-13T00:27:36.349Z,18.45
2018-04-13T00:30:02.470Z,17.83
2018-04-13T00:32:28.728Z,18.30
2018-04-13T00:34:54.847Z,18.00
2018-04-13T00:37:20.908Z,16.90
2018-04-13T00:39:47.053Z,20.15
2018-04-13T00:42:13.130Z,17.48
2018-04-13T00:44:39.217Z,17.10
2018-04-13T00:47:05.293Z,18.98
2018-04-13T00:49:31.439Z,19.60
2018-04-13T00:51:57.636Z,19.20
2018-04-13T00:54:23.740Z,18.02
2018-04-13T00:56:49.809Z,18.73
2018-04-13T00:59:16.072Z,17.65
2018-04-13T01:01:42.927Z,18.85
2018-04-13T01:04:09.040Z,17.42
2018-04-13T01:06:35.130Z,18.20
2018-04-13T01:09:02.094Z,16.77
2018-04-13T01:11:28.298Z,18.42
2018-04-13T01:13:55.132Z,17.75
2018-04-13T01:16:21.196Z,17.98
2018-04-13T01:18:47.272Z,17.23
2018-04-13T01:21:13.339Z,16.67
2018-04-13T01:23:39.409Z,17.70
2018-04-13T01:26:05.493Z,16.25
2018-04-13T01:28:31.693Z,17.35
2018-04-13T01:30:57.977Z,16.58
2018-04-13T01:33:24.081Z,17.02
2018-04-13T01:35:50.941Z,17.92
2018-04-13T01:38:17.107Z,16.02
2018-04-13T01:40:43.237Z,18.60
2018-04-13T01:43:09.327Z,19.87
2018-04-13T01:45:35.467Z,18.80
2018-04-13T01:48:01.821Z,20.35
2018-04-13T01:50:28.171Z,21.45
2018-04-13T01:52:54.502Z,22.73
2018-04-13T01:55:21.820Z,25.33
2018-04-13T01:57:48.023Z,23.20
2018-04-13T02:00:14.393Z,26.75
2018-04-13T02:02:40.720Z,28.55
2018-04-13T02:05:07.744Z,30.88
2018-04-13T02:07:34.070Z,30.52
2018-04-13T02:10:00.490Z,35.58
2018-04-13T02:12:26.919Z,34.78
2018-04-13T02:14:53.267Z,33.08
2018-04-13T02:17:20.305Z,33.58
2018-04-13T02:19:47.332Z,37.30
2018-04-13T02:22:14.475Z,36.38
2018-04-13T02:24:40.768Z,37.30
2018-04-13T02:27:07.820Z,38.05
2018-04-13T02:29:34.884Z,37.42
2018-04-13T02:32:02.032Z,36.33
2018-04-13T02:34:28.574Z,38.00
2018-04-13T02:36:54.825Z,40.90
2018-04-13T02:39:21.105Z,36.80
2018-04-13T02:41:47.609Z,38.30
2018-04-13T02:44:14.717Z,37.25
2018-04-13T02:46:40.846Z,37.40
2018-04-13T02:49:07.141Z,35.85
2018-04-13T02:51:34.183Z,36.15
2018-04-13T02:54:00.560Z,35.45
2018-04-13T02:56:26.957Z,35.78
2018-04-13T02:58:53.100Z,35.80
2018-04-13T03:01:19.512Z,34.92
2018-04-13T03:03:45.659Z,35.58
2018-04-13T03:06:11.949Z,35.28
2018-04-13T03:08:38.981Z,33.30
2018-04-13T03:11:05.264Z,35.28
2018-04-13T03:13:31.760Z,33.08
2018-04-13T03:15:58.247Z,32.22
2018-04-13T03:18:24.633Z,33.33
2018-04-13T03:20:50.916Z,33.00
2018-04-13T03:23:17.276Z,31.80
2018-04-13T03:25:44.287Z,33.45
2018-04-13T03:28:10.365Z,33.60
2018-04-13T03:30:36.457Z,34.15
2018-04-13T03:33:02.832Z,32.13
2018-04-13T03:35:29.199Z,35.85
2018-04-13T03:37:56.046Z,35.00
2018-04-13T03:40:22.968Z,30.67
2018-04-13T03:42:49.024Z,33.08
2018-04-13T03:45:15.136Z,33.63
2018-04-13T03:47:41.413Z,34.58
2018-04-13T03:50:07.660Z,31.75
2018-04-13T03:52:34.020Z,32.47
2018-04-13T03:55:00.431Z,33.17
2018-04-13T03:57:26.697Z,31.83
2018-04-13T03:59:52.809Z,33.00
2018-04-13T04:02:19.844Z,33.88
2018-04-13T04:04:45.981Z,32.55
2018-04-13T04:07:13.028Z,33.20
2018-04-13T04:09:39.104Z,32.72
2018-04-13T04:12:05.329Z,33.00
2018-04-13T04:14:31.697Z,34.33
2018-04-13T04:16:58.816Z,33.65
2018-04-13T04:19:38.278Z,32.53
2018-04-13T04:22:16.769Z,37.05
2018-04-13T04:24:55.563Z,35.20
2018-04-13T04:27:22.622Z,34.53
2018-04-13T04:29:49.466Z,37.67
2018-04-13T04:32:15.660Z,34.50
2018-04-13T04:34:41.746Z,33.55
2018-04-13T04:37:07.850Z,33.67
2018-04-13T04:39:34.154Z,33.20
2018-04-13T04:42:00.494Z,34.20
2018-04-13T04:44:26.924Z,31.83
2018-04-13T04:46:53.953Z,29.98
2018-04-13T04:49:20.078Z,31.55
2018-04-13T04:51:46.520Z,32.78
2018-04-13T04:54:12.875Z,35.13
2018-04-13T04:56:39.123Z,33.35
2018-04-13T04:59:05.389Z,32.45
2018-04-13T05:01:31.698Z,30.75
2018-04-13T05:03:58.123Z,31.90
2018-04-13T05:06:25.217Z,29.60
2018-04-13T05:08:52.264Z,33.95
2018-04-13T05:11:18.694Z,33.75
2018-04-13T05:13:45.139Z,33.33
2018-04-13T05:16:12.221Z,33.08
2018-04-13T05:18:38.326Z,33.30
2018-04-13T05:21:04.613Z,34.75
2018-04-13T05:23:30.949Z,36.50
2018-04-13T05:25:57.409Z,33.95
2018-04-13T05:28:23.737Z,34.83
2018-04-13T05:30:50.014Z,34.47
2018-04-13T05:33:16.462Z,32.97
2018-04-13T05:35:43.853Z,33.10
2018-04-13T05:38:10.134Z,34.38
2018-04-13T05:40:36.443Z,35.40
2018-04-13T05:43:02.915Z,32.58
2018-04-13T05:45:30.021Z,33.55
2018-04-13T05:47:56.474Z,33.33
2018-04-13T05:50:22.834Z,34.50
2018-04-13T05:52:55.197Z,34.35
2018-04-13T05:55:26.984Z,33.38
2018-04-13T05:57:53.109Z,38.00
2018-04-13T06:00:19.218Z,39.72
2018-04-13T06:02:46.551Z,44.38
2018-04-13T06:05:13.454Z,45.80
2018-04-13T06:07:40.645Z,44.03
2018-04-13T06:10:06.837Z,49.83
2018-04-13T06:12:32.974Z,45.08
2018-04-13T06:15:00.145Z,47.90
2018-04-13T06:17:26.527Z,45.35
2018-04-13T06:19:53.447Z,42.50
2018-04-13T06:22:19.621Z,43.25
2018-04-13T06:24:45.800Z,42.05
2018-04-13T06:27:12.655Z,41.45
2018-04-13T06:29:39.535Z,45.85
2018-04-13T06:32:07.057Z,40.33
2018-04-13T06:34:34.176Z,40.60
2018-04-13T06:37:00.917Z,38.27
2018-04-13T06:39:27.155Z,39.27
2018-04-13T06:41:53.666Z,42.13
2018-04-13T06:44:19.932Z,37.87
2018-04-13T06:46:46.823Z,38.80
2018-04-13T06:49:12.925Z,40.70
2018-04-13T06:51:39.755Z,38.53
2018-04-13T06:54:05.865Z,39.17
2018-04-13T06:56:32.040Z,39.70
2018-04-13T06:58:58.277Z,38.17
2018-04-13T07:01:25.125Z,39.07
2018-04-13T07:03:51.229Z,38.87
2018-04-13T07:06:17.313Z,37.47
2018-04-13T07:08:44.185Z,38.03
2018-04-13T07:11:26.013Z,38.77
2018-04-13T07:13:52.285Z,39.03
2018-04-13T07:16:31.653Z,39.43
2018-04-13T07:18:57.860Z,41.43
2018-04-13T07:21:23.974Z,38.53
2018-04-13T07:23:50.071Z,39.27
2018-04-13T07:26:16.179Z,39.47
2018-04-13T07:28:42.281Z,37.30
2018-04-13T07:31:08.783Z,36.87
2018-04-13T07:33:35.395Z,37.63
2018-04-13T07:36:01.601Z,38.27
2018-04-13T07:38:27.809Z,36.00
2018-04-13T07:40:54.647Z,36.73
2018-04-13T07:43:20.878Z,33.93
2018-04-13T07:45:51.397Z,36.87
2018-04-13T07:48:18.118Z,32.90
2018-04-13T07:50:43.601Z,34.50
2018-04-13T07:53:09.690Z,34.97
2018-04-13T07:55:35.821Z,34.90
2018-04-13T07:58:03.124Z,33.07
2018-04-13T08:00:28.850Z,34.43
2018-04-13T08:02:54.955Z,33.67
2018-04-13T08:05:21.790Z,34.87
2018-04-13T08:07:47.881Z,31.27
2018-04-13T08:10:15.307Z,32.70
2018-04-13T08:12:41.164Z,30.80
2018-04-13T08:15:07.398Z,31.10
2018-04-13T08:17:33.497Z,30.37
2018-04-13T08:19:59.929Z,32.00
2018-04-13T08:22:26.287Z,31.40
2018-04-13T08:24:52.425Z,31.60
2018-04-13T08:27:18.545Z,30.10
2018-04-13T08:29:46.898Z,31.90
2018-04-13T08:32:12.929Z,29.37
2018-04-13T08:34:39.033Z,31.73
2018-04-13T08:37:05.881Z,32.17
2018-04-13T08:39:32.020Z,34.30
2018-04-13T08:41:58.254Z,30.90
2018-04-13T08:44:24.507Z,31.13
2018-04-13T08:46:55.458Z,28.90
2018-04-13T08:49:22.365Z,22.23
2018-04-13T08:51:48.513Z,19.10
2018-04-13T08:54:14.602Z,19.60
2018-04-13T08:56:40.672Z,17.73
2018-04-13T08:59:07.518Z,18.17
2018-04-13T09:01:34.349Z,18.70
2018-04-13T09:04:02.152Z,19.20
2018-04-13T09:06:28.506Z,17.13
2018-04-13T09:08:54.566Z,17.10
2018-04-13T09:11:20.729Z,18.60
2018-04-13T09:13:46.893Z,19.07
2018-04-13T09:16:13.007Z,18.47
2018-04-13T09:18:39.121Z,19.33
2018-04-13T09:21:08.185Z,18.27
2018-04-13T09:23:35.087Z,18.23
2018-04-13T09:26:01.279Z,19.27
2018-04-13T09:28:27.482Z,17.27
2018-04-13T09:30:53.658Z,18.40
2018-04-13T09:33:20.493Z,18.70
2018-04-13T09:35:46.719Z,16.20
2018-04-13T09:38:17.804Z,15.90
2018-04-13T09:40:43.902Z,15.10
2018-04-13T09:43:10.008Z,16.73
2018-04-13T09:45:36.154Z,14.90
2018-04-13T09:48:02.264Z,15.40
2018-04-13T09:50:29.205Z,14.07
2018-04-13T09:52:56.181Z,13.67
2018-04-13T09:55:22.333Z,11.00
2018-04-13T09:57:53.086Z,10.47
2018-04-13T10:00:25.233Z,11.80
2018-04-13T10:02:57.672Z,10.57
2018-04-13T10:05:23.969Z,10.77
2018-04-13T10:07:54.764Z,10.33
2018-04-13T10:10:21.054Z,11.47
2018-04-13T10:12:48.217Z,11.70
2018-04-13T10:15:14.697Z,14.43
2018-04-13T10:17:40.948Z,14.57
2018-04-13T10:20:07.353Z,15.60
2018-04-13T10:22:33.688Z,15.30
2018-04-13T10:25:04.598Z,15.60
2018-04-13T10:27:31.722Z,14.43
2018-04-13T10:29:58.152Z,13.57
2018-04-13T10:32:25.234Z,14.43
2018-04-13T10:34:51.604Z,14.90
2018-04-13T10:37:17.852Z,14.57
2018-04-13T10:39:44.164Z,14.87
2018-04-13T10:42:14.388Z,15.40
2018-04-13T10:44:41.425Z,14.30
2018-04-13T10:47:07.685Z,16.73
2018-04-13T10:49:33.944Z,15.53
2018-04-13T10:52:00.338Z,16.60
2018-04-13T10:54:26.697Z,17.30
2018-04-13T10:56:53.045Z,17.07
2018-04-13T10:59:19.415Z,16.77
2018-04-13T11:01:49.718Z,17.90
2018-04-13T11:04:16.032Z,17.00
2018-04-13T11:06:43.039Z,18.23
2018-04-13T11:09:09.326Z,19.00
2018-04-13T11:11:35.643Z,18.80
2018-04-13T11:14:02.025Z,17.43
2018-04-13T11:16:28.466Z,19.60
2018-04-13T11:18:54.895Z,18.60
2018-04-13T11:21:24.769Z,19.23
2018-04-13T11:23:51.064Z,17.40
2018-04-13T11:26:17.301Z,17.60
2018-04-13T11:28:43.655Z,17.10
2018-04-13T11:31:10.030Z,17.00
2018-04-13T11:33:36.386Z,18.97
2018-04-13T11:36:02.657Z,18.97
2018-04-13T11:38:29.233Z,19.40
2018-04-13T11:40:59.418Z,19.60
2018-04-13T11:43:26.023Z,19.50
2018-04-13T11:45:52.420Z,17.63
2018-04-13T11:48:19.450Z,15.80
2018-04-13T11:50:45.822Z,15.47
2018-04-13T11:53:12.120Z,16.97
2018-04-13T11:55:39.145Z,14.73
2018-04-13T11:58:09.460Z,15.87
2018-04-13T12:00:35.748Z,16.17
2018-04-13T12:03:02.769Z,16.00
2018-04-13T12:05:29.116Z,14.67
2018-04-13T12:07:55.443Z,14.00
2018-04-13T12:10:21.720Z,14.43
2018-04-13T12:12:48.838Z,14.00
2018-04-13T12:15:19.365Z,15.50
2018-04-13T12:17:45.676Z,15.47
2018-04-13T12:20:12.038Z,14.87
2018-04-13T12:22:39.049Z,14.93
2018-04-13T12:25:05.309Z,14.73
2018-04-13T12:27:31.632Z,13.67
2018-04-13T12:29:58.075Z,15.67
2018-04-13T12:32:26.902Z,14.93
2018-04-13T12:34:54.051Z,13.90
2018-04-13T12:37:21.162Z,13.03
2018-04-13T12:39:47.608Z,12.60
2018-04-13T12:42:13.927Z,13.50
2018-04-13T12:44:40.305Z,13.57
2018-04-13T12:47:07.305Z,14.13
2018-04-13T12:49:33.732Z,13.00
2018-04-13T12:52:00.314Z,14.60
2018-04-13T12:54:27.585Z,14.47
2018-04-13T12:56:53.888Z,13.13
2018-04-13T12:59:20.155Z,13.20
2018-04-13T13:01:46.492Z,14.90
2018-04-13T13:04:12.797Z,14.53
2018-04-13T13:06:40.101Z,13.97
2018-04-13T13:09:06.373Z,14.40
2018-04-13T13:11:33.480Z,15.13
2018-04-13T13:14:00.597Z,13.87
2018-04-13T13:16:26.946Z,14.07
2018-04-13T13:18:53.311Z,13.40
2018-04-13T13:21:19.593Z,14.50
2018-04-13T13:23:45.992Z,13.77
2018-04-13T13:26:13.085Z,13.97
2018-04-13T13:28:39.382Z,15.17
2018-04-13T13:31:05.672Z,15.07
2018-04-13T13:33:31.961Z,14.00
2018-04-13T13:35:58.379Z,14.13
2018-04-13T13:38:25.039Z,15.63
2018-04-13T13:40:51.449Z,15.70
2018-04-13T13:43:17.801Z,14.43
2018-04-13T13:45:44.145Z,14.50
2018-04-13T13:48:10.456Z,13.67
2018-04-13T13:50:37.438Z,14.80
2018-04-13T13:53:03.774Z,15.40
2018-04-13T13:55:30.125Z,13.70
2018-04-13T13:57:56.503Z,13.10
2018-04-13T14:00:22.768Z,13.97
2018-04-13T14:02:49.105Z,14.80
2018-04-13T14:05:15.442Z,14.30
2018-04-13T14:07:41.716Z,14.27
2018-04-13T14:10:07.980Z,14.50
2018-04-13T14:12:34.261Z,15.03
2018-04-13T14:15:00.675Z,13.13
2018-04-13T14:17:27.077Z,13.90
2018-04-13T14:19:53.420Z,12.30
2018-04-13T14:22:19.673Z,14.13
2018-04-13T14:24:46.134Z,14.93
2018-04-13T14:27:13.157Z,12.87
2018-04-13T14:29:39.422Z,13.70
2018-04-13T14:32:05.696Z,13.27
2018-04-13T14:34:32.006Z,14.60
2018-04-13T14:36:58.412Z,12.40
2018-04-13T14:39:24.716Z,11.70
2018-04-13T14:41:51.060Z,12.60
2018-04-13T14:44:17.340Z,11.43
2018-04-13T14:46:43.641Z,11.73
2018-04-13T14:49:09.952Z,11.63
2018-04-13T14:51:36.238Z,11.90
2018-04-13T14:54:02.571Z,12.20
2018-04-13T14:56:29.665Z,11.27
2018-04-13T14:58:56.106Z,12.60
2018-04-13T15:01:22.398Z,12.47
2018-04-13T15:03:49.445Z,12.53
2018-04-13T15:06:15.794Z,12.40
2018-04-13T15:08:42.181Z,13.00
2018-04-13T15:11:08.443Z,12.57
2018-04-13T15:13:34.761Z,12.87
2018-04-13T15:16:02.186Z,13.70
2018-04-13T15:18:28.699Z,15.17
2018-04-13T15:20:55.058Z,13.37
2018-04-13T15:23:21.351Z,18.03
2018-04-13T15:25:47.654Z,15.93
2018-04-13T15:28:14.693Z,14.40
2018-04-13T15:30:40.952Z,13.80
2018-04-13T15:33:07.222Z,15.43
2018-04-13T15:35:33.580Z,14.27
2018-04-13T15:38:00.664Z,14.90
2018-04-13T15:40:27.107Z,14.47
2018-04-13T15:42:54.711Z,13.90
2018-04-13T15:45:21.035Z,14.20
2018-04-13T15:47:47.309Z,14.20
2018-04-13T15:50:14.314Z,13.60
2018-04-13T15:52:41.349Z,15.40
2018-04-13T15:55:08.061Z,15.63
2018-04-13T15:57:34.317Z,14.90
2018-04-13T16:00:00.778Z,14.10
2018-04-13T16:02:27.996Z,14.00
2018-04-13T16:04:55.098Z,16.10
2018-04-13T16:07:22.206Z,16.20
2018-04-13T16:09:48.494Z,15.77
2018-04-13T16:12:15.543Z,16.20
2018-04-13T16:14:41.841Z,16.27
2018-04-13T16:17:08.115Z,15.70
2018-04-13T16:19:34.380Z,16.47
2018-04-13T16:22:00.761Z,16.93
2018-04-13T16:24:27.107Z,16.50
2018-04-13T16:26:53.449Z,15.77
2018-04-13T16:29:20.510Z,15.80
2018-04-13T16:31:46.832Z,14.73
2018-04-13T16:34:13.121Z,14.70
2018-04-13T16:36:39.397Z,13.30
2018-04-13T16:39:05.665Z,13.20
2018-04-13T16:41:32.032Z,12.57
2018-04-13T16:43:58.364Z,12.80
2018-04-13T16:46:24.648Z,13.27
2018-04-13T16:48:50.956Z,13.23
2018-04-13T16:51:17.297Z,13.93
2018-04-13T16:53:43.597Z,13.07
2018-04-13T16:56:10.652Z,13.60
2018-04-13T16:58:36.958Z,13.63
2018-04-13T17:01:03.225Z,13.77
2018-04-13T17:03:29.592Z,14.30
2018-04-13T17:05:55.984Z,14.70
2018-04-13T17:08:22.509Z,15.20
2018-04-13T17:10:48.772Z,15.97
2018-04-13T17:13:15.229Z,15.80
2018-04-13T17:15:41.538Z,18.07
2018-04-13T17:18:07.826Z,19.90
2018-04-13T17:20:35.632Z,20.63
2018-04-13T17:23:02.675Z,18.37
2018-04-13T17:25:29.742Z,20.33
2018-04-13T17:27:56.127Z,18.50
2018-04-13T17:30:22.457Z,17.73
2018-04-13T17:32:49.915Z,17.37
2018-04-13T17:35:17.157Z,17.70
2018-04-13T17:37:43.441Z,16.90
2018-04-13T17:40:09.686Z,17.63
2018-04-13T17:42:36.073Z,18.00
2018-04-13T17:45:02.411Z,16.40
2018-04-13T17:47:29.489Z,16.57
2018-04-13T17:49:58.553Z,16.57
2018-04-13T17:52:24.888Z,16.60
2018-04-13T17:54:51.192Z,16.93
2018-04-13T17:57:18.461Z,16.80
2018-04-13T17:59:44.815Z,17.40
2018-04-13T18:02:11.127Z,17.37
2018-04-13T18:04:44.475Z,17.00
2018-04-13T18:07:11.436Z,17.80
2018-04-13T18:09:37.717Z,16.57
2018-04-13T18:12:04.116Z,17.37
2018-04-13T18:14:30.589Z,17.70
2018-04-13T18:16:57.029Z,16.90
2018-04-13T18:19:23.413Z,15.40
2018-04-13T18:21:49.729Z,17.20
2018-04-13T18:24:27.820Z,16.97
2018-04-13T18:26:54.654Z,16.00
2018-04-13T18:29:27.327Z,17.13
2018-04-13T18:31:53.436Z,17.40
2018-04-13T18:34:19.513Z,17.53
2018-04-13T18:36:45.685Z,17.60
2018-04-13T18:39:11.815Z,17.23
2018-04-13T18:41:37.905Z,16.37
2018-04-13T18:44:04.012Z,17.20
2018-04-13T18:46:30.926Z,17.13
2018-04-13T18:48:57.091Z,16.90
2018-04-13T18:51:23.297Z,17.63
2018-04-13T18:53:50.221Z,17.10
2018-04-13T18:56:17.037Z,17.33
2018-04-13T18:58:43.089Z,18.83
2018-04-13T19:01:09.165Z,16.00
2018-04-13T19:03:35.344Z,18.97
2018-04-13T19:06:01.432Z,18.57
2018-04-13T19:08:28.375Z,18.03
2018-04-13T19:10:56.679Z,17.50
2018-04-13T19:13:22.893Z,18.33
2018-04-13T19:15:51.027Z,17.57
2018-04-13T19:18:18.901Z,17.87
2018-04-13T19:20:45.157Z,18.47
2018-04-13T19:23:12.091Z,19.17
2018-04-13T19:25:40.280Z,18.30
2018-04-13T19:28:06.382Z,18.80
2018-04-13T19:30:33.185Z,18.83
2018-04-13T19:32:59.387Z,19.30
2018-04-13T19:35:26.220Z,19.17
2018-04-13T19:37:52.354Z,21.40
2018-04-13T19:40:19.247Z,18.57
2018-04-13T19:42:46.159Z,20.20
2018-04-13T19:45:13.032Z,19.43
2018-04-13T19:47:39.842Z,20.10
2018-04-13T19:50:05.904Z,20.10
2018-04-13T19:52:32.025Z,21.50
2018-04-13T19:54:58.188Z,20.60
2018-04-13T19:57:24.346Z,21.07
2018-04-13T19:59:50.417Z,20.33
2018-04-13T20:02:16.611Z,21.60
2018-04-13T20:04:42.754Z,19.93
2018-04-13T20:07:09.581Z,20.27
2018-04-13T20:09:35.761Z,20.50
2018-04-13T20:12:01.985Z,20.43
2018-04-13T20:14:28.351Z,19.80
2018-04-13T20:16:54.464Z,20.60
2018-04-13T20:19:20.585Z,20.87
2018-04-13T20:21:46.772Z,22.80
2018-04-13T20:24:13.137Z,22.20
2018-04-13T20:26:39.297Z,22.73
2018-04-13T20:29:06.325Z,23.20
2018-04-13T20:31:33.347Z,24.17
2018-04-13T20:33:59.535Z,24.53
2018-04-13T20:36:26.516Z,23.77
2018-04-13T20:38:53.365Z,23.30
2018-04-13T20:41:20.470Z,25.10
2018-04-13T20:43:46.594Z,24.10
2018-04-13T20:46:13.448Z,25.77
2018-04-13T20:48:39.629Z,24.43
2018-04-13T20:51:06.522Z,25.87
2018-04-13T20:53:32.662Z,25.33
2018-04-13T20:55:59.765Z,25.60
2018-04-13T20:58:26.798Z,25.10
2018-04-13T21:00:53.133Z,25.80
2018-04-13T21:03:20.376Z,25.70
2018-04-13T21:05:47.555Z,27.27
2018-04-13T21:08:13.774Z,26.90
2018-04-13T21:10:39.940Z,25.17
2018-04-13T21:13:06.792Z,27.87
2018-04-13T21:15:33.671Z,27.63
2018-04-13T21:17:59.892Z,25.80
2018-04-13T21:20:26.159Z,25.20
2018-04-13T21:22:52.311Z,26.17
2018-04-13T21:25:19.228Z,27.20
2018-04-13T21:27:46.145Z,27.80
2018-04-13T21:30:13.073Z,26.60
2018-04-13T21:32:39.932Z,28.07
2018-04-13T21:35:06.048Z,27.83
2018-04-13T21:37:32.201Z,27.40
2018-04-13T21:39:58.441Z,29.70
2018-04-13T21:42:24.554Z,28.80
2018-04-13T21:44:50.659Z,28.00
2018-04-13T21:47:16.765Z,28.40
2018-04-13T21:49:42.984Z,28.30
2018-04-13T21:52:09.091Z,28.93
2018-04-13T21:54:36.105Z,27.83
2018-04-13T21:57:02.328Z,28.20
2018-04-13T21:59:28.579Z,27.43
2018-04-13T22:01:54.712Z,29.00
2018-04-13T22:04:20.862Z,29.07
2018-04-13T22:06:47.097Z,30.53
2018-04-13T22:09:13.214Z,30.50
2018-04-13T22:11:39.399Z,31.30
2018-04-13T22:14:18.017Z,31.00
2018-04-13T22:16:44.233Z,31.83
2018-04-13T22:19:10.352Z,33.40
2018-04-13T22:21:36.568Z,33.67
2018-04-13T22:24:03.514Z,33.27
2018-04-13T22:26:29.668Z,33.10
2018-04-13T22:28:55.784Z,32.70
2018-04-13T22:31:21.885Z,30.70
2018-04-13T22:33:48.125Z,30.97
2018-04-13T22:36:14.266Z,33.90
2018-04-13T22:38:40.431Z,31.90
2018-04-13T22:41:06.494Z,31.33
2018-04-13T22:43:32.705Z,30.73
2018-04-13T22:45:58.929Z,30.63
2018-04-13T22:48:25.026Z,31.90
2018-04-13T22:50:51.076Z,30.63
2018-04-13T22:53:17.208Z,31.80
2018-04-13T22:55:43.322Z,32.20
2018-04-13T22:58:09.427Z,33.07
2018-04-13T23:00:35.528Z,32.13
2018-04-13T23:03:02.551Z,31.47
2018-04-13T23:05:28.709Z,32.00
2018-04-13T23:07:54.804Z,31.80
2018-04-13T23:10:20.965Z,32.00
2018-04-13T23:12:47.806Z,30.97
2018-04-13T23:15:14.701Z,31.53
2018-04-13T23:17:40.785Z,32.60
2018-04-13T23:20:06.990Z,29.53
2018-04-13T23:22:36.890Z,31.80
2018-04-13T23:25:03.010Z,31.10
2018-04-13T23:27:29.196Z,29.80
2018-04-13T23:29:56.140Z,32.17
2018-04-13T23:32:22.275Z,28.70
2018-04-13T23:34:48.386Z,30.60
2018-04-13T23:37:14.500Z,29.70
2018-04-13T23:39:41.350Z,31.10
2018-04-13T23:42:08.545Z,30.43
2018-04-13T23:44:34.832Z,30.77
2018-04-13T23:47:00.997Z,29.60
2018-04-13T23:49:27.731Z,29.27
2018-04-13T23:51:54.820Z,31.60
2018-04-13T23:54:21.777Z,31.63
2018-04-13T23:56:47.874Z,31.07
2018-04-13T23:59:15.091Z,32.23
